(°C)
(°C)
-0°
-0°
-0°
WSW
WSW
WSW
WSW
WSW
WSW
W
(km/h)
12-24
12-24
12-24
12-25
13-27
14-30
15-32
(mm)
0
0
0
0
0
0
0
(%)
12
12
0
0
13
25
36

Wysokość słońca

/ -22.4°
sun-icon
UV 1
07:10
19:34
Pełnia (187°)
20:04
07:01

METAR dla 55.03°N 82.6°E (UNNT)

Czas Warunki Temperatura/
Punkt rosy
Wiatr Widzialność Pogoda Chmury Ciśn. atm. Zmień Surowy
MVFR 4°C / 3°C 250º 10kt >10km - Scattered Clouds 1100ft 1012 No Significant change. Runway 25: Damp, 51-100% contamination with <1mm, friction coefficient 0.60. Runway 34: deposit not reported, . UNNT 202100Z 25005MPS 9999 SCT011 OVC030 04/03 Q1012 R25/190060 R34/////// NOSIG RMK QFE749/0999
VFR 4°C / 3°C 240º 8kt >10km - Overcast 4000ft 1012 No Significant change. Runway 25: Damp, 51-100% contamination with <1mm, friction coefficient 0.60. Runway 34: deposit not reported, . UNNT 202030Z 24004MPS 9999 OVC040 04/03 Q1012 R25/190060 R34/////// NOSIG RMK QFE749/0999
MVFR 4°C / 3°C 250º 10kt >10km - Overcast 1500ft 1012 No Significant change. Runway 25: Damp, 51-100% contamination with <1mm, friction coefficient 0.60. Runway 34: deposit not reported, . UNNT 202000Z 25005MPS 9999 OVC015 04/03 Q1012 R25/190060 R34/////// NOSIG RMK QFE749/0998
VFR 4°C / 3°C 250º 10kt >10km - Scattered Clouds 1600ft 1012 No Significant change. Runway 25: Damp, 51-100% contamination with <1mm, friction coefficient 0.60. Runway 34: deposit not reported, . UNNT 201930Z 25005MPS 9999 SCT016 04/03 Q1012 R25/190060 R34/////// NOSIG RMK QFE749/0998
VFR 3°C / 2°C 250º 8kt >10km - Scattered Clouds 3300ft 1011 No Significant change. Runway 25: Damp, 51-100% contamination with <1mm, friction coefficient 0.60. Runway 34: deposit not reported, . UNNT 201900Z 25004MPS 9999 SCT033 03/02 Q1011 R25/190060 R34/////// NOSIG RMK QFE749/0998
MVFR 4°C / 2°C 250º 10kt >10km - Few Clouds 1100ft 1011 No Significant change. Runway 25: Damp, 51-100% contamination with <1mm, friction coefficient 0.60. Runway 34: deposit not reported, . UNNT 201830Z 25005MPS 9999 FEW011 OVC030 04/02 Q1011 R25/190060 R34/////// NOSIG RMK QFE748/0998
MVFR 4°C / 2°C 240º 10kt >10km - Scattered Clouds 1100ft 1011 No Significant change. Runway 25: Damp, 51-100% contamination with <1mm, friction coefficient 0.60. Runway 34: deposit not reported, . UNNT 201800Z 24005MPS 9999 SCT011 BKN030 04/02 Q1011 R25/190060 R34/////// NOSIG RMK QFE748/0998
MVFR 4°C / 2°C 240º 10kt >10km - Broken Clouds 2000ft 1011 No Significant change. Runway 25: Damp, 51-100% contamination with <1mm, friction coefficient 0.60. Runway 34: deposit not reported, . UNNT 201730Z 24005MPS 9999 BKN020 04/02 Q1011 R25/190060 R34/////// NOSIG RMK QFE748/0998
MVFR 4°C / 2°C 240º 12kt >10km - Broken Clouds 1800ft 1011 No Significant change. Runway 25: Damp, 51-100% contamination with <1mm, friction coefficient 0.60. Runway 34: deposit not reported, . UNNT 201700Z 24006MPS 9999 BKN018 04/02 Q1011 R25/190060 R34/////// NOSIG RMK QFE748/0998
MVFR 5°C / 2°C 240º 10kt >10km - Broken Clouds 1800ft 1011 No Significant change. Runway 25: Damp, 51-100% contamination with <1mm, friction coefficient 0.60. Runway 34: deposit not reported, . UNNT 201630Z 24005MPS 9999 BKN018 05/02 Q1011 R25/190060 R34/////// NOSIG RMK QFE748/0998
VFR 4°C / 3°C 230º 10kt >10km - Scattered Clouds 2300ft 1011 No Significant change. Runway 25: Damp, 51-100% contamination with <1mm, friction coefficient 0.60. Runway 34: deposit not reported, . UNNT 201600Z 23005MPS 9999 SCT023 04/03 Q1011 R25/190060 R34/////// NOSIG RMK QFE748/0998
MVFR 5°C / 3°C 230º 8kt >10km - Broken Clouds 2600ft 1011 No Significant change. Runway 25: Damp, 51-100% contamination with <1mm, friction coefficient 0.60. Runway 34: deposit not reported, . UNNT 201530Z 23004MPS 9999 BKN026 05/03 Q1011 R25/190060 R34/////// NOSIG RMK QFE748/0998
VFR 5°C / 3°C 230º 10kt >10km - Overcast 3500ft 1011 No Significant change. Runway 25: Damp, 51-100% contamination with <1mm, friction coefficient 0.60. Runway 34: deposit not reported, . UNNT 201500Z 23005MPS 9999 OVC035CB 05/03 Q1011 R25/190060 R34/////// NOSIG RMK QFE748/0998
MVFR 5°C / 3°C 240º 10kt >10km - Overcast 2700ft 1011 No Significant change. Runway 25: Wet or puddles, 51-100% contamination with 1mm, friction coefficient 0.55. Runway 34: deposit not reported, . UNNT 201430Z 24005MPS 9999 OVC027CB 05/03 Q1011 R25/290155 R34/////// NOSIG RMK QFE748/0998
MVFR 5°C / 3°C 230º 10kt >10km - Broken Clouds 2100ft 1011 No Significant change. Runway 25: Wet or puddles, 51-100% contamination with 1mm, friction coefficient 0.55. Runway 34: deposit not reported, . UNNT 201400Z 23005MPS 9999 BKN021CB 05/03 Q1011 R25/290155 R34/////// NOSIG RMK QFE748/0998
VFR 5°C / 3°C 230º 10kt >10km - Broken Clouds 3200ft 1011 No Significant change. Runway 25: Wet or puddles, 51-100% contamination with 1mm, friction coefficient 0.55. Runway 34: deposit not reported, . UNNT 201330Z 23005MPS 9999 BKN032CB 05/03 Q1011 R25/290155 R34/////// NOSIG RMK QFE748/0998
MVFR 5°C / 3°C 230º 10kt >10km - Broken Clouds 2800ft 1010 No Significant change. Runway 25: Wet or puddles, 51-100% contamination with 1mm, friction coefficient 0.55. Runway 34: deposit not reported, . UNNT 201300Z 23005MPS 9999 BKN028CB 05/03 Q1010 R25/290155 R34/////// NOSIG RMK QFE748/0997
MVFR 5°C / 3°C 240º 12kt >10km - Broken Clouds 2400ft 1010 No Significant change. Runway 25: Wet or puddles, 51-100% contamination with 1mm, friction coefficient 0.55. Runway 34: deposit not reported, . UNNT 201230Z 24006MPS 9999 BKN024 05/03 Q1010 R25/290155 R34/////// NOSIG RMK QFE748/0997
VFR 5°C / 3°C 240º 10kt >10km - Scattered Clouds 2000ft 1010 No Significant change. Runway 25: Wet or puddles, 51-100% contamination with 1mm, friction coefficient 0.55. Runway 34: deposit not reported, . UNNT 201200Z 24005MPS 9999 SCT020CB 05/03 Q1010 R25/290155 R34/////// NOSIG RMK QFE748/0997
VFR 5°C / 3°C 230º 14kt >10km Light Showers Rain 3.00mm precipitation Vertical Visibility of 0ft. 1010 No Significant change. Runway 25: Wet or puddles, 51-100% contamination with 1mm, friction coefficient 0.55. Runway 34: deposit not reported, . UNNT 201130Z 23007MPS 9999 -SHRA SCT020CB 05/03 Q1010 R25/290155 R34/////// NOSIG RMK QFE748/0997
VFR 6°C / 3°C 230º 14kt >10km - Scattered Clouds 2000ft 1010 No Significant change. Runway 25: Wet or puddles, 51-100% contamination with 1mm, friction coefficient 0.55. Runway 34: deposit not reported, . UNNT 201100Z 23007MPS 9999 SCT020CB 06/03 Q1010 R25/290155 R34/////// NOSIG RMK QFE747/0997
MVFR 6°C / 3°C 230º 12kt >10km - Broken Clouds 2000ft 1010 No Significant change. Runway 25: Wet or puddles, 51-100% contamination with 1mm, friction coefficient 0.55. Runway 34: deposit not reported, . UNNT 201030Z 23006MPS 9999 BKN020CB 06/03 Q1010 R25/290155 R34/////// NOSIG RMK QFE747/0997
MVFR 6°C / 3°C 230º 12kt >10km Light Showers Rain 3.00mm precipitation Vertical Visibility of 0ft. 1010 No Significant change. Runway 25: Wet or puddles, 51-100% contamination with 1mm, friction coefficient 0.55. Runway 34: deposit not reported, . UNNT 201000Z 23006MPS 9999 -SHRA BKN026CB 06/03 Q1010 R25/290155 R34/////// NOSIG RMK QFE747/0996
VFR 6°C / 3°C 230º 10kt >10km - Scattered Clouds 1600ft 1010 No Significant change. Runway 25: Wet or puddles, 51-100% contamination with 1mm, friction coefficient 0.55. Runway 34: deposit not reported, . UNNT 200930Z 23005MPS 9999 SCT016CB 06/03 Q1010 R25/290155 R34/////// NOSIG RMK QFE747/0996

MVFR

4°C / 3°C

[Więcej]
Wiatr 250º 10kt
Widzialność >10km
Pogoda -
Chmury Scattered Clouds 1100ft
Ciśn. atm. 1012
Zmień No Significant change. Runway 25: Damp, 51-100% contamination with <1mm, friction coefficient 0.60. Runway 34: deposit not reported, .
Surowy UNNT 202100Z 25005MPS 9999 SCT011 OVC030 04/03 Q1012 R25/190060 R34/////// NOSIG RMK QFE749/0999

VFR

4°C / 3°C

[Więcej]
Wiatr 240º 8kt
Widzialność >10km
Pogoda -
Chmury Overcast 4000ft
Ciśn. atm. 1012
Zmień No Significant change. Runway 25: Damp, 51-100% contamination with <1mm, friction coefficient 0.60. Runway 34: deposit not reported, .
Surowy UNNT 202030Z 24004MPS 9999 OVC040 04/03 Q1012 R25/190060 R34/////// NOSIG RMK QFE749/0999

MVFR

4°C / 3°C

[Więcej]
Wiatr 250º 10kt
Widzialność >10km
Pogoda -
Chmury Overcast 1500ft
Ciśn. atm. 1012
Zmień No Significant change. Runway 25: Damp, 51-100% contamination with <1mm, friction coefficient 0.60. Runway 34: deposit not reported, .
Surowy UNNT 202000Z 25005MPS 9999 OVC015 04/03 Q1012 R25/190060 R34/////// NOSIG RMK QFE749/0998

VFR

4°C / 3°C

[Więcej]
Wiatr 250º 10kt
Widzialność >10km
Pogoda -
Chmury Scattered Clouds 1600ft
Ciśn. atm. 1012
Zmień No Significant change. Runway 25: Damp, 51-100% contamination with <1mm, friction coefficient 0.60. Runway 34: deposit not reported, .
Surowy UNNT 201930Z 25005MPS 9999 SCT016 04/03 Q1012 R25/190060 R34/////// NOSIG RMK QFE749/0998

VFR

3°C / 2°C

[Więcej]
Wiatr 250º 8kt
Widzialność >10km
Pogoda -
Chmury Scattered Clouds 3300ft
Ciśn. atm. 1011
Zmień No Significant change. Runway 25: Damp, 51-100% contamination with <1mm, friction coefficient 0.60. Runway 34: deposit not reported, .
Surowy UNNT 201900Z 25004MPS 9999 SCT033 03/02 Q1011 R25/190060 R34/////// NOSIG RMK QFE749/0998

MVFR

4°C / 2°C

[Więcej]
Wiatr 250º 10kt
Widzialność >10km
Pogoda -
Chmury Few Clouds 1100ft
Ciśn. atm. 1011
Zmień No Significant change. Runway 25: Damp, 51-100% contamination with <1mm, friction coefficient 0.60. Runway 34: deposit not reported, .
Surowy UNNT 201830Z 25005MPS 9999 FEW011 OVC030 04/02 Q1011 R25/190060 R34/////// NOSIG RMK QFE748/0998

MVFR

4°C / 2°C

[Więcej]
Wiatr 240º 10kt
Widzialność >10km
Pogoda -
Chmury Scattered Clouds 1100ft
Ciśn. atm. 1011
Zmień No Significant change. Runway 25: Damp, 51-100% contamination with <1mm, friction coefficient 0.60. Runway 34: deposit not reported, .
Surowy UNNT 201800Z 24005MPS 9999 SCT011 BKN030 04/02 Q1011 R25/190060 R34/////// NOSIG RMK QFE748/0998

MVFR

4°C / 2°C

[Więcej]
Wiatr 240º 10kt
Widzialność >10km
Pogoda -
Chmury Broken Clouds 2000ft
Ciśn. atm. 1011
Zmień No Significant change. Runway 25: Damp, 51-100% contamination with <1mm, friction coefficient 0.60. Runway 34: deposit not reported, .
Surowy UNNT 201730Z 24005MPS 9999 BKN020 04/02 Q1011 R25/190060 R34/////// NOSIG RMK QFE748/0998

MVFR

4°C / 2°C

[Więcej]
Wiatr 240º 12kt
Widzialność >10km
Pogoda -
Chmury Broken Clouds 1800ft
Ciśn. atm. 1011
Zmień No Significant change. Runway 25: Damp, 51-100% contamination with <1mm, friction coefficient 0.60. Runway 34: deposit not reported, .
Surowy UNNT 201700Z 24006MPS 9999 BKN018 04/02 Q1011 R25/190060 R34/////// NOSIG RMK QFE748/0998

MVFR

5°C / 2°C

[Więcej]
Wiatr 240º 10kt
Widzialność >10km
Pogoda -
Chmury Broken Clouds 1800ft
Ciśn. atm. 1011
Zmień No Significant change. Runway 25: Damp, 51-100% contamination with <1mm, friction coefficient 0.60. Runway 34: deposit not reported, .
Surowy UNNT 201630Z 24005MPS 9999 BKN018 05/02 Q1011 R25/190060 R34/////// NOSIG RMK QFE748/0998

VFR

4°C / 3°C

[Więcej]
Wiatr 230º 10kt
Widzialność >10km
Pogoda -
Chmury Scattered Clouds 2300ft
Ciśn. atm. 1011
Zmień No Significant change. Runway 25: Damp, 51-100% contamination with <1mm, friction coefficient 0.60. Runway 34: deposit not reported, .
Surowy UNNT 201600Z 23005MPS 9999 SCT023 04/03 Q1011 R25/190060 R34/////// NOSIG RMK QFE748/0998

MVFR

5°C / 3°C

[Więcej]
Wiatr 230º 8kt
Widzialność >10km
Pogoda -
Chmury Broken Clouds 2600ft
Ciśn. atm. 1011
Zmień No Significant change. Runway 25: Damp, 51-100% contamination with <1mm, friction coefficient 0.60. Runway 34: deposit not reported, .
Surowy UNNT 201530Z 23004MPS 9999 BKN026 05/03 Q1011 R25/190060 R34/////// NOSIG RMK QFE748/0998

VFR

5°C / 3°C

[Więcej]
Wiatr 230º 10kt
Widzialność >10km
Pogoda -
Chmury Overcast 3500ft
Ciśn. atm. 1011
Zmień No Significant change. Runway 25: Damp, 51-100% contamination with <1mm, friction coefficient 0.60. Runway 34: deposit not reported, .
Surowy UNNT 201500Z 23005MPS 9999 OVC035CB 05/03 Q1011 R25/190060 R34/////// NOSIG RMK QFE748/0998

MVFR

5°C / 3°C

[Więcej]
Wiatr 240º 10kt
Widzialność >10km
Pogoda -
Chmury Overcast 2700ft
Ciśn. atm. 1011
Zmień No Significant change. Runway 25: Wet or puddles, 51-100% contamination with 1mm, friction coefficient 0.55. Runway 34: deposit not reported, .
Surowy UNNT 201430Z 24005MPS 9999 OVC027CB 05/03 Q1011 R25/290155 R34/////// NOSIG RMK QFE748/0998

MVFR

5°C / 3°C

[Więcej]
Wiatr 230º 10kt
Widzialność >10km
Pogoda -
Chmury Broken Clouds 2100ft
Ciśn. atm. 1011
Zmień No Significant change. Runway 25: Wet or puddles, 51-100% contamination with 1mm, friction coefficient 0.55. Runway 34: deposit not reported, .
Surowy UNNT 201400Z 23005MPS 9999 BKN021CB 05/03 Q1011 R25/290155 R34/////// NOSIG RMK QFE748/0998

VFR

5°C / 3°C

[Więcej]
Wiatr 230º 10kt
Widzialność >10km
Pogoda -
Chmury Broken Clouds 3200ft
Ciśn. atm. 1011
Zmień No Significant change. Runway 25: Wet or puddles, 51-100% contamination with 1mm, friction coefficient 0.55. Runway 34: deposit not reported, .
Surowy UNNT 201330Z 23005MPS 9999 BKN032CB 05/03 Q1011 R25/290155 R34/////// NOSIG RMK QFE748/0998

MVFR

5°C / 3°C

[Więcej]
Wiatr 230º 10kt
Widzialność >10km
Pogoda -
Chmury Broken Clouds 2800ft
Ciśn. atm. 1010
Zmień No Significant change. Runway 25: Wet or puddles, 51-100% contamination with 1mm, friction coefficient 0.55. Runway 34: deposit not reported, .
Surowy UNNT 201300Z 23005MPS 9999 BKN028CB 05/03 Q1010 R25/290155 R34/////// NOSIG RMK QFE748/0997

MVFR

5°C / 3°C

[Więcej]
Wiatr 240º 12kt
Widzialność >10km
Pogoda -
Chmury Broken Clouds 2400ft
Ciśn. atm. 1010
Zmień No Significant change. Runway 25: Wet or puddles, 51-100% contamination with 1mm, friction coefficient 0.55. Runway 34: deposit not reported, .
Surowy UNNT 201230Z 24006MPS 9999 BKN024 05/03 Q1010 R25/290155 R34/////// NOSIG RMK QFE748/0997

VFR

5°C / 3°C

[Więcej]
Wiatr 240º 10kt
Widzialność >10km
Pogoda -
Chmury Scattered Clouds 2000ft
Ciśn. atm. 1010
Zmień No Significant change. Runway 25: Wet or puddles, 51-100% contamination with 1mm, friction coefficient 0.55. Runway 34: deposit not reported, .
Surowy UNNT 201200Z 24005MPS 9999 SCT020CB 05/03 Q1010 R25/290155 R34/////// NOSIG RMK QFE748/0997

VFR

5°C / 3°C

[Więcej]
Wiatr 230º 14kt
Widzialność >10km
Pogoda Light Showers Rain 3.00mm precipitation
Chmury Vertical Visibility of 0ft.
Ciśn. atm. 1010
Zmień No Significant change. Runway 25: Wet or puddles, 51-100% contamination with 1mm, friction coefficient 0.55. Runway 34: deposit not reported, .
Surowy UNNT 201130Z 23007MPS 9999 -SHRA SCT020CB 05/03 Q1010 R25/290155 R34/////// NOSIG RMK QFE748/0997

VFR

6°C / 3°C

[Więcej]
Wiatr 230º 14kt
Widzialność >10km
Pogoda -
Chmury Scattered Clouds 2000ft
Ciśn. atm. 1010
Zmień No Significant change. Runway 25: Wet or puddles, 51-100% contamination with 1mm, friction coefficient 0.55. Runway 34: deposit not reported, .
Surowy UNNT 201100Z 23007MPS 9999 SCT020CB 06/03 Q1010 R25/290155 R34/////// NOSIG RMK QFE747/0997

MVFR

6°C / 3°C

[Więcej]
Wiatr 230º 12kt
Widzialność >10km
Pogoda -
Chmury Broken Clouds 2000ft
Ciśn. atm. 1010
Zmień No Significant change. Runway 25: Wet or puddles, 51-100% contamination with 1mm, friction coefficient 0.55. Runway 34: deposit not reported, .
Surowy UNNT 201030Z 23006MPS 9999 BKN020CB 06/03 Q1010 R25/290155 R34/////// NOSIG RMK QFE747/0997

MVFR

6°C / 3°C

[Więcej]
Wiatr 230º 12kt
Widzialność >10km
Pogoda Light Showers Rain 3.00mm precipitation
Chmury Vertical Visibility of 0ft.
Ciśn. atm. 1010
Zmień No Significant change. Runway 25: Wet or puddles, 51-100% contamination with 1mm, friction coefficient 0.55. Runway 34: deposit not reported, .
Surowy UNNT 201000Z 23006MPS 9999 -SHRA BKN026CB 06/03 Q1010 R25/290155 R34/////// NOSIG RMK QFE747/0996

VFR

6°C / 3°C

[Więcej]
Wiatr 230º 10kt
Widzialność >10km
Pogoda -
Chmury Scattered Clouds 1600ft
Ciśn. atm. 1010
Zmień No Significant change. Runway 25: Wet or puddles, 51-100% contamination with 1mm, friction coefficient 0.55. Runway 34: deposit not reported, .
Surowy UNNT 200930Z 23005MPS 9999 SCT016CB 06/03 Q1010 R25/290155 R34/////// NOSIG RMK QFE747/0996

TAF dla 55.03°N 82.6°E (UNNT)

From till


From till Wind 240º 10kt. Gust 23kt. Visibility 8000m. Light Showers Rain . Broken Clouds 1600ft.
Temporarly from till Broken Clouds 1000ft. Broken Clouds 1600ft.
Becoming from till Wind 280º 14kt. Gust 29kt. Visibility 8000m. Light Showers Rain . Broken Clouds 1600ft.
Becoming from till Wind 240º 10kt. Gust 19kt. Visibility 8000m. Light Showers Rain . Broken Clouds 1600ft.

Surowy: TAF UNNT 202000Z 2021/2121 24005G12MPS 8000 -SHRA BKN016CB TEMPO 2021/2110 BKN010 BKN016CB BECMG 2100/2103 28007G15MPS BECMG 2115/2118 24005G10MPS

Aktualne zdjęcia satelitarne i zdjęcia opadów deszczu dla 55.03°N 82.6°E

Wskaźnik lokalizacji znajduje się na 55.03°N 82.6°E. [Więcej]

Obraz satelitarny w czasie rzeczywistym łączy światło widzialne w ciągu dnia z promieniowaniem podczerwonym w nocy. W nocy obraz nie jest ciemny, ponieważ promieniowanie podczerwone może wykrywać różnice temperatur. Niestety niskie chmury i mgłę trudno odróżnić od temperatury gruntu, przez co mogą być prawie niewidoczne w nocy. Zdjęcia satelitarne Meteosat dla Europy są aktualizowane w czasie rzeczywistym co 5 minut. Obrazy GOES-16/GOES-17 (Ameryka Północna i Południowa) oraz Himawari (Azja) są aktualizowane co 10 minut.

Prawa autorskie 2021 EUMETSAT / meteoblue. / Prawa autorskie 2021 meteoblue

Radar i prognoza opadów na teraz dla 55.03°N 82.6°E

Mżawka
Lekki
Umiarkowane
Ulewne
Bardzo ciężkie
Grad

Wskaźnik lokalizacji jest umieszczony na 55.03°N 82.6°E. Animacja przedstawia radar opadów dla ostatniej godziny, jak również 1h prognozę pogody. Mżawka lub lekki opad śniegu może być niewidoczny dla radaru. Intensywność opadów jest oznaczona kolorami, od jasnoniebieskiego do pomarańczowego.